sensor_id;sensor_type;location;lat;lon;timestamp;P1;durP1;ratioP1;P2;durP2;ratioP2
801;SDS011;383;48.766;9.270;2022-10-23T00:01:17;9.48;;;5.35;;
801;SDS011;383;48.766;9.270;2022-10-23T00:03:47;8.00;;;4.70;;
801;SDS011;383;48.766;9.270;2022-10-23T00:06:17;11.10;;;5.03;;
801;SDS011;383;48.766;9.270;2022-10-23T00:08:44;8.18;;;4.35;;
801;SDS011;383;48.766;9.270;2022-10-23T00:11:13;6.85;;;4.50;;
801;SDS011;383;48.766;9.270;2022-10-23T00:13:41;10.77;;;4.20;;
801;SDS011;383;48.766;9.270;2022-10-23T00:16:09;8.77;;;5.23;;
801;SDS011;383;48.766;9.270;2022-10-23T00:18:36;17.17;;;4.10;;
801;SDS011;383;48.766;9.270;2022-10-23T00:21:05;7.82;;;3.65;;
801;SDS011;383;48.766;9.270;2022-10-23T00:23:34;9.65;;;4.68;;
801;SDS011;383;48.766;9.270;2022-10-23T00:26:01;8.07;;;4.07;;
801;SDS011;383;48.766;9.270;2022-10-23T00:28:28;6.72;;;4.18;;
801;SDS011;383;48.766;9.270;2022-10-23T00:30:55;6.50;;;3.97;;
801;SDS011;383;48.766;9.270;2022-10-23T00:33:22;8.95;;;4.10;;
801;SDS011;383;48.766;9.270;2022-10-23T00:35:48;5.75;;;3.75;;
801;SDS011;383;48.766;9.270;2022-10-23T00:38:16;4.55;;;3.60;;
801;SDS011;383;48.766;9.270;2022-10-23T00:40:43;21.23;;;4.60;;
801;SDS011;383;48.766;9.270;2022-10-23T00:43:15;13.52;;;4.90;;
801;SDS011;383;48.766;9.270;2022-10-23T00:45:43;13.25;;;4.75;;
801;SDS011;383;48.766;9.270;2022-10-23T00:48:09;7.00;;;4.35;;
801;SDS011;383;48.766;9.270;2022-10-23T00:50:36;20.98;;;4.75;;
801;SDS011;383;48.766;9.270;2022-10-23T00:53:03;7.55;;;4.28;;
801;SDS011;383;48.766;9.270;2022-10-23T00:55:32;10.13;;;4.75;;
801;SDS011;383;48.766;9.270;2022-10-23T00:58:00;13.35;;;4.70;;
801;SDS011;383;48.766;9.270;2022-10-23T01:00:27;27.30;;;4.75;;
801;SDS011;383;48.766;9.270;2022-10-23T01:02:56;9.85;;;5.13;;
801;SDS011;383;48.766;9.270;2022-10-23T01:05:24;5.95;;;4.50;;
801;SDS011;383;48.766;9.270;2022-10-23T01:07:55;9.52;;;5.60;;
801;SDS011;383;48.766;9.270;2022-10-23T01:10:29;7.10;;;4.90;;
801;SDS011;383;48.766;9.270;2022-10-23T01:13:01;7.90;;;5.43;;
801;SDS011;383;48.766;9.270;2022-10-23T01:15:35;8.88;;;5.50;;
801;SDS011;383;48.766;9.270;2022-10-23T01:18:10;10.63;;;5.80;;
801;SDS011;383;48.766;9.270;2022-10-23T01:20:42;9.45;;;6.00;;
801;SDS011;383;48.766;9.270;2022-10-23T01:23:30;11.02;;;6.22;;
801;SDS011;383;48.766;9.270;2022-10-23T01:26:20;15.43;;;6.25;;
801;SDS011;383;48.766;9.270;2022-10-23T01:28:58;15.55;;;6.03;;
801;SDS011;383;48.766;9.270;2022-10-23T01:31:29;10.57;;;6.03;;
801;SDS011;383;48.766;9.270;2022-10-23T01:34:01;9.35;;;5.72;;
801;SDS011;383;48.766;9.270;2022-10-23T01:36:32;10.80;;;6.50;;
801;SDS011;383;48.766;9.270;2022-10-23T01:39:03;13.15;;;5.90;;
801;SDS011;383;48.766;9.270;2022-10-23T01:41:33;9.93;;;5.32;;
801;SDS011;383;48.766;9.270;2022-10-23T01:44:06;8.68;;;5.18;;
801;SDS011;383;48.766;9.270;2022-10-23T01:46:37;10.35;;;5.30;;
801;SDS011;383;48.766;9.270;2022-10-23T01:49:05;10.60;;;6.00;;
801;SDS011;383;48.766;9.270;2022-10-23T01:51:35;11.55;;;5.30;;
801;SDS011;383;48.766;9.270;2022-10-23T01:54:05;9.80;;;4.93;;
801;SDS011;383;48.766;9.270;2022-10-23T01:56:35;12.50;;;6.00;;
801;SDS011;383;48.766;9.270;2022-10-23T01:59:07;12.73;;;4.97;;
801;SDS011;383;48.766;9.270;2022-10-23T02:01:38;16.40;;;5.20;;
801;SDS011;383;48.766;9.270;2022-10-23T02:04:07;10.32;;;4.82;;
801;SDS011;383;48.766;9.270;2022-10-23T02:06:37;7.25;;;4.45;;
801;SDS011;383;48.766;9.270;2022-10-23T02:09:05;10.90;;;5.53;;
801;SDS011;383;48.766;9.270;2022-10-23T02:11:32;10.52;;;5.80;;
801;SDS011;383;48.766;9.270;2022-10-23T02:14:06;10.82;;;6.68;;
801;SDS011;383;48.766;9.270;2022-10-23T02:16:40;21.85;;;7.57;;
801;SDS011;383;48.766;9.270;2022-10-23T02:19:14;12.75;;;6.18;;
801;SDS011;383;48.766;9.270;2022-10-23T02:21:47;9.77;;;5.70;;
801;SDS011;383;48.766;9.270;2022-10-23T02:24:18;14.45;;;6.38;;
801;SDS011;383;48.766;9.270;2022-10-23T02:26:51;9.68;;;5.53;;
801;SDS011;383;48.766;9.270;2022-10-23T02:29:24;10.85;;;6.07;;
801;SDS011;383;48.766;9.270;2022-10-23T02:31:54;14.65;;;5.68;;
801;SDS011;383;48.766;9.270;2022-10-23T02:34:20;14.35;;;5.82;;
801;SDS011;383;48.766;9.270;2022-10-23T02:36:48;8.50;;;5.50;;
801;SDS011;383;48.766;9.270;2022-10-23T02:39:14;14.75;;;6.60;;
801;SDS011;383;48.766;9.270;2022-10-23T02:41:43;16.23;;;6.30;;
801;SDS011;383;48.766;9.270;2022-10-23T02:44:20;16.52;;;7.57;;
801;SDS011;383;48.766;9.270;2022-10-23T02:47:08;15.85;;;6.18;;
801;SDS011;383;48.766;9.270;2022-10-23T02:49:41;10.88;;;6.35;;
801;SDS011;383;48.766;9.270;2022-10-23T02:52:15;13.68;;;5.03;;
801;SDS011;383;48.766;9.270;2022-10-23T02:54:50;8.02;;;4.90;;
801;SDS011;383;48.766;9.270;2022-10-23T02:57:27;10.32;;;5.65;;
801;SDS011;383;48.766;9.270;2022-10-23T03:00:01;10.68;;;5.78;;
801;SDS011;383;48.766;9.270;2022-10-23T03:02:31;7.35;;;4.50;;
801;SDS011;383;48.766;9.270;2022-10-23T03:05:04;12.73;;;4.88;;
801;SDS011;383;48.766;9.270;2022-10-23T03:07:33;8.48;;;4.25;;
801;SDS011;383;48.766;9.270;2022-10-23T03:10:01;9.10;;;4.88;;
801;SDS011;383;48.766;9.270;2022-10-23T03:12:28;9.40;;;4.47;;
801;SDS011;383;48.766;9.270;2022-10-23T03:14:54;8.80;;;4.90;;
801;SDS011;383;48.766;9.270;2022-10-23T03:17:22;8.65;;;4.55;;
801;SDS011;383;48.766;9.270;2022-10-23T03:19:50;10.95;;;5.10;;
801;SDS011;383;48.766;9.270;2022-10-23T03:22:17;11.50;;;4.82;;
801;SDS011;383;48.766;9.270;2022-10-23T03:24:43;8.68;;;5.25;;
801;SDS011;383;48.766;9.270;2022-10-23T03:27:10;7.78;;;4.43;;
801;SDS011;383;48.766;9.270;2022-10-23T03:29:37;9.25;;;4.57;;
801;SDS011;383;48.766;9.270;2022-10-23T03:32:04;9.10;;;4.85;;
801;SDS011;383;48.766;9.270;2022-10-23T03:34:32;6.68;;;4.60;;
801;SDS011;383;48.766;9.270;2022-10-23T03:36:59;8.65;;;4.57;;
801;SDS011;383;48.766;9.270;2022-10-23T03:39:26;17.10;;;4.78;;
801;SDS011;383;48.766;9.270;2022-10-23T03:41:53;6.43;;;4.43;;
801;SDS011;383;48.766;9.270;2022-10-23T03:44:20;11.02;;;4.72;;
801;SDS011;383;48.766;9.270;2022-10-23T03:46:46;8.25;;;4.15;;
801;SDS011;383;48.766;9.270;2022-10-23T03:49:13;9.48;;;4.60;;
801;SDS011;383;48.766;9.270;2022-10-23T03:51:41;9.90;;;6.05;;
801;SDS011;383;48.766;9.270;2022-10-23T03:54:09;9.32;;;4.80;;
801;SDS011;383;48.766;9.270;2022-10-23T03:56:35;8.80;;;5.00;;
801;SDS011;383;48.766;9.270;2022-10-23T03:59:02;12.68;;;5.13;;
801;SDS011;383;48.766;9.270;2022-10-23T04:01:29;8.60;;;4.72;;
801;SDS011;383;48.766;9.270;2022-10-23T04:03:55;9.45;;;4.45;;
801;SDS011;383;48.766;9.270;2022-10-23T04:06:22;12.38;;;4.53;;
801;SDS011;383;48.766;9.270;2022-10-23T04:08:50;11.38;;;4.40;;
801;SDS011;383;48.766;9.270;2022-10-23T04:11:17;7.40;;;4.25;;
801;SDS011;383;48.766;9.270;2022-10-23T04:13:43;12.07;;;5.80;;
801;SDS011;383;48.766;9.270;2022-10-23T04:16:10;8.25;;;4.75;;
801;SDS011;383;48.766;9.270;2022-10-23T04:18:38;16.60;;;5.47;;
801;SDS011;383;48.766;9.270;2022-10-23T04:21:05;11.43;;;5.95;;
801;SDS011;383;48.766;9.270;2022-10-23T04:23:32;9.35;;;5.75;;
801;SDS011;383;48.766;9.270;2022-10-23T04:26:00;9.93;;;7.00;;
801;SDS011;383;48.766;9.270;2022-10-23T04:28:27;10.32;;;7.10;;
801;SDS011;383;48.766;9.270;2022-10-23T04:30:53;8.02;;;6.20;;
801;SDS011;383;48.766;9.270;2022-10-23T04:33:20;9.90;;;6.28;;
801;SDS011;383;48.766;9.270;2022-10-23T04:35:47;11.90;;;6.57;;
801;SDS011;383;48.766;9.270;2022-10-23T04:38:14;12.77;;;7.05;;
801;SDS011;383;48.766;9.270;2022-10-23T04:40:40;13.15;;;7.38;;
801;SDS011;383;48.766;9.270;2022-10-23T04:43:08;12.70;;;6.95;;
801;SDS011;383;48.766;9.270;2022-10-23T04:45:35;9.52;;;6.78;;
801;SDS011;383;48.766;9.270;2022-10-23T04:48:02;10.40;;;6.65;;
801;SDS011;383;48.766;9.270;2022-10-23T04:50:29;16.30;;;7.78;;
801;SDS011;383;48.766;9.270;2022-10-23T04:52:56;11.98;;;7.32;;
801;SDS011;383;48.766;9.270;2022-10-23T04:55:23;9.93;;;5.90;;
801;SDS011;383;48.766;9.270;2022-10-23T04:57:50;27.70;;;7.57;;
801;SDS011;383;48.766;9.270;2022-10-23T05:00:18;14.70;;;5.40;;
801;SDS011;383;48.766;9.270;2022-10-23T05:02:45;8.90;;;6.90;;
801;SDS011;383;48.766;9.270;2022-10-23T05:05:12;9.07;;;5.90;;
801;SDS011;383;48.766;9.270;2022-10-23T05:07:38;10.18;;;5.10;;
801;SDS011;383;48.766;9.270;2022-10-23T05:10:05;7.78;;;5.25;;
801;SDS011;383;48.766;9.270;2022-10-23T05:12:32;10.20;;;5.50;;
801;SDS011;383;48.766;9.270;2022-10-23T05:14:59;11.48;;;6.75;;
801;SDS011;383;48.766;9.270;2022-10-23T05:17:28;12.95;;;7.47;;
801;SDS011;383;48.766;9.270;2022-10-23T05:19:59;14.63;;;6.72;;
801;SDS011;383;48.766;9.270;2022-10-23T05:22:31;10.98;;;5.72;;
801;SDS011;383;48.766;9.270;2022-10-23T05:25:00;10.68;;;5.80;;
801;SDS011;383;48.766;9.270;2022-10-23T05:27:27;11.73;;;5.60;;
801;SDS011;383;48.766;9.270;2022-10-23T05:29:54;10.13;;;5.85;;
801;SDS011;383;48.766;9.270;2022-10-23T05:32:20;19.10;;;7.65;;
801;SDS011;383;48.766;9.270;2022-10-23T05:34:50;13.23;;;5.75;;
801;SDS011;383;48.766;9.270;2022-10-23T05:37:17;13.30;;;5.25;;
801;SDS011;383;48.766;9.270;2022-10-23T05:39:44;15.05;;;4.63;;
801;SDS011;383;48.766;9.270;2022-10-23T05:42:11;11.25;;;4.90;;
801;SDS011;383;48.766;9.270;2022-10-23T05:44:37;7.97;;;4.88;;
801;SDS011;383;48.766;9.270;2022-10-23T05:47:05;11.93;;;4.68;;
801;SDS011;383;48.766;9.270;2022-10-23T05:49:33;7.70;;;5.10;;
801;SDS011;383;48.766;9.270;2022-10-23T05:52:01;11.18;;;5.78;;
801;SDS011;383;48.766;9.270;2022-10-23T05:54:28;7.32;;;4.70;;
801;SDS011;383;48.766;9.270;2022-10-23T05:56:55;15.68;;;5.22;;
801;SDS011;383;48.766;9.270;2022-10-23T05:59:22;11.10;;;4.95;;
801;SDS011;383;48.766;9.270;2022-10-23T06:01:49;11.00;;;5.72;;
801;SDS011;383;48.766;9.270;2022-10-23T06:04:16;16.50;;;5.68;;
801;SDS011;383;48.766;9.270;2022-10-23T06:06:43;23.58;;;6.78;;
801;SDS011;383;48.766;9.270;2022-10-23T06:09:12;16.20;;;6.60;;
801;SDS011;383;48.766;9.270;2022-10-23T06:11:40;10.32;;;6.20;;
801;SDS011;383;48.766;9.270;2022-10-23T06:14:07;8.88;;;5.07;;
801;SDS011;383;48.766;9.270;2022-10-23T06:16:33;12.50;;;7.40;;
801;SDS011;383;48.766;9.270;2022-10-23T06:19:00;23.98;;;8.43;;
801;SDS011;383;48.766;9.270;2022-10-23T06:21:27;12.43;;;6.60;;
801;SDS011;383;48.766;9.270;2022-10-23T06:23:54;14.98;;;5.88;;
801;SDS011;383;48.766;9.270;2022-10-23T06:26:22;26.55;;;5.90;;
801;SDS011;383;48.766;9.270;2022-10-23T06:28:49;14.25;;;7.03;;
801;SDS011;383;48.766;9.270;2022-10-23T06:31:16;15.57;;;7.53;;
801;SDS011;383;48.766;9.270;2022-10-23T06:33:44;17.15;;;6.78;;
801;SDS011;383;48.766;9.270;2022-10-23T06:36:11;15.38;;;6.40;;
801;SDS011;383;48.766;9.270;2022-10-23T06:38:38;18.30;;;8.98;;
801;SDS011;383;48.766;9.270;2022-10-23T06:41:05;23.23;;;11.23;;
801;SDS011;383;48.766;9.270;2022-10-23T06:43:34;37.30;;;14.40;;
801;SDS011;383;48.766;9.270;2022-10-23T06:46:01;42.50;;;18.70;;
801;SDS011;383;48.766;9.270;2022-10-23T06:48:29;30.08;;;13.30;;
801;SDS011;383;48.766;9.270;2022-10-23T06:50:55;21.55;;;10.43;;
801;SDS011;383;48.766;9.270;2022-10-23T06:53:23;29.63;;;10.43;;
801;SDS011;383;48.766;9.270;2022-10-23T06:55:50;21.97;;;9.83;;
801;SDS011;383;48.766;9.270;2022-10-23T06:58:17;23.70;;;11.23;;
801;SDS011;383;48.766;9.270;2022-10-23T07:00:45;30.42;;;10.35;;
801;SDS011;383;48.766;9.270;2022-10-23T07:03:12;18.65;;;7.00;;
801;SDS011;383;48.766;9.270;2022-10-23T07:05:38;15.45;;;5.88;;
801;SDS011;383;48.766;9.270;2022-10-23T07:08:08;7.47;;;5.00;;
801;SDS011;383;48.766;9.270;2022-10-23T07:10:35;6.87;;;4.40;;
801;SDS011;383;48.766;9.270;2022-10-23T07:13:02;16.93;;;5.83;;
801;SDS011;383;48.766;9.270;2022-10-23T07:15:29;13.77;;;5.37;;
801;SDS011;383;48.766;9.270;2022-10-23T07:17:57;12.00;;;6.80;;
801;SDS011;383;48.766;9.270;2022-10-23T07:20:23;18.77;;;7.80;;
801;SDS011;383;48.766;9.270;2022-10-23T07:22:50;9.30;;;5.20;;
801;SDS011;383;48.766;9.270;2022-10-23T07:25:18;10.00;;;4.60;;
801;SDS011;383;48.766;9.270;2022-10-23T07:27:48;12.03;;;5.50;;
801;SDS011;383;48.766;9.270;2022-10-23T07:30:16;13.27;;;5.53;;
801;SDS011;383;48.766;9.270;2022-10-23T07:32:43;9.40;;;4.60;;
801;SDS011;383;48.766;9.270;2022-10-23T07:35:11;13.07;;;5.73;;
801;SDS011;383;48.766;9.270;2022-10-23T07:37:39;14.93;;;5.33;;
801;SDS011;383;48.766;9.270;2022-10-23T07:40:07;10.30;;;4.93;;
801;SDS011;383;48.766;9.270;2022-10-23T07:42:34;10.37;;;5.07;;
801;SDS011;383;48.766;9.270;2022-10-23T07:45:01;16.60;;;6.60;;
801;SDS011;383;48.766;9.270;2022-10-23T07:47:28;12.70;;;4.80;;
801;SDS011;383;48.766;9.270;2022-10-23T07:49:56;9.33;;;6.00;;
801;SDS011;383;48.766;9.270;2022-10-23T07:52:24;15.13;;;5.67;;
801;SDS011;383;48.766;9.270;2022-10-23T07:54:51;8.23;;;4.90;;
801;SDS011;383;48.766;9.270;2022-10-23T07:57:18;7.70;;;4.70;;
801;SDS011;383;48.766;9.270;2022-10-23T07:59:45;7.27;;;5.50;;
801;SDS011;383;48.766;9.270;2022-10-23T08:02:12;12.33;;;5.30;;
801;SDS011;383;48.766;9.270;2022-10-23T08:04:40;8.90;;;4.77;;
801;SDS011;383;48.766;9.270;2022-10-23T08:07:07;6.40;;;4.10;;
801;SDS011;383;48.766;9.270;2022-10-23T08:09:35;8.77;;;5.60;;
801;SDS011;383;48.766;9.270;2022-10-23T08:12:02;19.73;;;8.80;;
801;SDS011;383;48.766;9.270;2022-10-23T08:14:29;7.70;;;5.40;;
801;SDS011;383;48.766;9.270;2022-10-23T08:16:55;12.60;;;5.97;;
801;SDS011;383;48.766;9.270;2022-10-23T08:19:22;21.87;;;12.93;;
801;SDS011;383;48.766;9.270;2022-10-23T08:21:49;11.93;;;8.90;;
801;SDS011;383;48.766;9.270;2022-10-23T08:24:18;9.07;;;5.47;;
801;SDS011;383;48.766;9.270;2022-10-23T08:26:48;7.53;;;5.70;;
801;SDS011;383;48.766;9.270;2022-10-23T08:29:15;7.63;;;4.97;;
801;SDS011;383;48.766;9.270;2022-10-23T08:31:42;6.30;;;4.63;;
801;SDS011;383;48.766;9.270;2022-10-23T08:34:08;10.83;;;4.40;;
801;SDS011;383;48.766;9.270;2022-10-23T08:36:35;8.90;;;4.43;;
801;SDS011;383;48.766;9.270;2022-10-23T08:39:03;7.43;;;4.80;;
801;SDS011;383;48.766;9.270;2022-10-23T08:41:31;10.73;;;4.90;;
801;SDS011;383;48.766;9.270;2022-10-23T08:44:02;11.07;;;4.87;;
801;SDS011;383;48.766;9.270;2022-10-23T08:46:36;11.97;;;5.90;;
801;SDS011;383;48.766;9.270;2022-10-23T08:49:08;17.03;;;7.23;;
801;SDS011;383;48.766;9.270;2022-10-23T08:51:43;6.87;;;5.77;;
801;SDS011;383;48.766;9.270;2022-10-23T08:54:13;17.10;;;6.27;;
801;SDS011;383;48.766;9.270;2022-10-23T08:56:42;4.83;;;3.73;;
801;SDS011;383;48.766;9.270;2022-10-23T08:59:16;6.67;;;4.40;;
801;SDS011;383;48.766;9.270;2022-10-23T09:01:49;7.27;;;4.50;;
801;SDS011;383;48.766;9.270;2022-10-23T09:04:20;8.73;;;4.93;;
801;SDS011;383;48.766;9.270;2022-10-23T09:06:48;12.53;;;5.80;;
801;SDS011;383;48.766;9.270;2022-10-23T09:09:28;12.70;;;5.30;;
801;SDS011;383;48.766;9.270;2022-10-23T09:12:10;10.80;;;5.33;;
801;SDS011;383;48.766;9.270;2022-10-23T09:14:51;8.93;;;4.90;;
801;SDS011;383;48.766;9.270;2022-10-23T09:17:33;7.57;;;4.80;;
801;SDS011;383;48.766;9.270;2022-10-23T09:20:06;10.53;;;4.70;;
801;SDS011;383;48.766;9.270;2022-10-23T09:22:39;6.20;;;4.40;;
801;SDS011;383;48.766;9.270;2022-10-23T09:25:07;7.60;;;4.17;;
801;SDS011;383;48.766;9.270;2022-10-23T09:27:36;7.30;;;4.47;;
801;SDS011;383;48.766;9.270;2022-10-23T09:30:05;5.47;;;4.23;;
801;SDS011;383;48.766;9.270;2022-10-23T09:32:33;9.77;;;4.20;;
801;SDS011;383;48.766;9.270;2022-10-23T09:35:01;15.27;;;4.93;;
801;SDS011;383;48.766;9.270;2022-10-23T09:37:29;5.20;;;3.83;;
801;SDS011;383;48.766;9.270;2022-10-23T09:40:00;7.30;;;3.33;;
801;SDS011;383;48.766;9.270;2022-10-23T09:42:49;3.13;;;2.40;;
801;SDS011;383;48.766;9.270;2022-10-23T09:45:23;5.07;;;1.90;;
801;SDS011;383;48.766;9.270;2022-10-23T09:48:02;3.90;;;2.70;;
801;SDS011;383;48.766;9.270;2022-10-23T09:50:30;2.77;;;1.70;;
801;SDS011;383;48.766;9.270;2022-10-23T09:52:57;2.80;;;1.83;;
801;SDS011;383;48.766;9.270;2022-10-23T09:55:24;3.50;;;1.83;;
801;SDS011;383;48.766;9.270;2022-10-23T09:57:52;3.53;;;1.87;;
801;SDS011;383;48.766;9.270;2022-10-23T10:00:21;4.47;;;1.90;;
801;SDS011;383;48.766;9.270;2022-10-23T10:02:54;3.70;;;2.57;;
801;SDS011;383;48.766;9.270;2022-10-23T10:05:23;2.13;;;1.67;;
801;SDS011;383;48.766;9.270;2022-10-23T10:07:52;4.37;;;2.53;;
801;SDS011;383;48.766;9.270;2022-10-23T10:10:21;4.00;;;2.00;;
801;SDS011;383;48.766;9.270;2022-10-23T10:12:49;5.10;;;2.40;;
801;SDS011;383;48.766;9.270;2022-10-23T10:15:25;8.83;;;3.50;;
801;SDS011;383;48.766;9.270;2022-10-23T10:17:57;6.10;;;2.00;;
801;SDS011;383;48.766;9.270;2022-10-23T10:20:35;8.00;;;2.27;;
801;SDS011;383;48.766;9.270;2022-10-23T10:23:25;3.03;;;2.00;;
801;SDS011;383;48.766;9.270;2022-10-23T10:25:59;3.40;;;2.17;;
801;SDS011;383;48.766;9.270;2022-10-23T10:28:40;2.20;;;1.67;;
801;SDS011;383;48.766;9.270;2022-10-23T10:31:22;1.53;;;1.30;;
801;SDS011;383;48.766;9.270;2022-10-23T10:34:00;3.00;;;2.00;;
801;SDS011;383;48.766;9.270;2022-10-23T10:36:40;6.03;;;1.90;;
801;SDS011;383;48.766;9.270;2022-10-23T10:39:18;2.13;;;1.50;;
801;SDS011;383;48.766;9.270;2022-10-23T10:41:59;2.80;;;1.27;;
801;SDS011;383;48.766;9.270;2022-10-23T10:44:40;2.40;;;1.60;;
801;SDS011;383;48.766;9.270;2022-10-23T10:47:20;1.90;;;1.17;;
801;SDS011;383;48.766;9.270;2022-10-23T10:49:54;2.40;;;1.40;;
801;SDS011;383;48.766;9.270;2022-10-23T10:52:33;3.77;;;1.53;;
801;SDS011;383;48.766;9.270;2022-10-23T10:55:10;5.67;;;1.70;;
801;SDS011;383;48.766;9.270;2022-10-23T10:57:45;3.87;;;1.57;;
801;SDS011;383;48.766;9.270;2022-10-23T11:00:16;1.43;;;1.33;;
801;SDS011;383;48.766;9.270;2022-10-23T11:02:46;2.70;;;1.77;;
801;SDS011;383;48.766;9.270;2022-10-23T11:05:17;16.40;;;8.43;;
801;SDS011;383;48.766;9.270;2022-10-23T11:07:53;5.60;;;3.73;;
801;SDS011;383;48.766;9.270;2022-10-23T11:10:22;3.03;;;1.67;;
801;SDS011;383;48.766;9.270;2022-10-23T11:12:49;4.40;;;2.27;;
801;SDS011;383;48.766;9.270;2022-10-23T11:15:18;4.07;;;2.57;;
801;SDS011;383;48.766;9.270;2022-10-23T11:17:49;4.73;;;2.33;;
801;SDS011;383;48.766;9.270;2022-10-23T11:20:24;3.90;;;1.83;;
801;SDS011;383;48.766;9.270;2022-10-23T11:23:04;4.83;;;2.20;;
801;SDS011;383;48.766;9.270;2022-10-23T11:25:48;2.20;;;2.00;;
801;SDS011;383;48.766;9.270;2022-10-23T11:28:28;12.30;;;2.87;;
801;SDS011;383;48.766;9.270;2022-10-23T11:31:17;5.67;;;2.40;;
801;SDS011;383;48.766;9.270;2022-10-23T11:34:04;2.93;;;2.10;;
801;SDS011;383;48.766;9.270;2022-10-23T11:36:44;5.70;;;2.70;;
801;SDS011;383;48.766;9.270;2022-10-23T11:39:14;2.40;;;1.90;;
801;SDS011;383;48.766;9.270;2022-10-23T11:41:48;3.10;;;2.23;;
801;SDS011;383;48.766;9.270;2022-10-23T11:44:24;7.97;;;2.60;;
801;SDS011;383;48.766;9.270;2022-10-23T11:50:04;6.40;;;2.53;;
801;SDS011;383;48.766;9.270;2022-10-23T11:52:39;4.53;;;3.00;;
801;SDS011;383;48.766;9.270;2022-10-23T11:55:18;11.40;;;3.70;;
801;SDS011;383;48.766;9.270;2022-10-23T11:58:00;4.50;;;4.20;;
801;SDS011;383;48.766;9.270;2022-10-23T12:00:48;3.17;;;2.57;;
801;SDS011;383;48.766;9.270;2022-10-23T12:03:24;4.90;;;2.50;;
801;SDS011;383;48.766;9.270;2022-10-23T12:06:03;5.07;;;1.97;;
801;SDS011;383;48.766;9.270;2022-10-23T12:08:31;2.10;;;1.60;;
801;SDS011;383;48.766;9.270;2022-10-23T12:11:00;2.87;;;2.10;;
801;SDS011;383;48.766;9.270;2022-10-23T12:13:28;2.47;;;1.70;;
801;SDS011;383;48.766;9.270;2022-10-23T12:15:57;3.27;;;2.10;;
801;SDS011;383;48.766;9.270;2022-10-23T12:18:23;2.90;;;1.70;;
801;SDS011;383;48.766;9.270;2022-10-23T12:20:53;2.63;;;2.07;;
801;SDS011;383;48.766;9.270;2022-10-23T12:23:30;4.30;;;2.00;;
801;SDS011;383;48.766;9.270;2022-10-23T12:26:19;4.87;;;1.90;;
801;SDS011;383;48.766;9.270;2022-10-23T12:29:00;6.60;;;2.93;;
801;SDS011;383;48.766;9.270;2022-10-23T12:31:35;7.00;;;2.50;;
801;SDS011;383;48.766;9.270;2022-10-23T12:34:15;3.90;;;1.80;;
801;SDS011;383;48.766;9.270;2022-10-23T12:37:07;5.17;;;2.40;;
801;SDS011;383;48.766;9.270;2022-10-23T12:39:54;3.43;;;1.83;;
801;SDS011;383;48.766;9.270;2022-10-23T12:42:23;2.20;;;1.93;;
801;SDS011;383;48.766;9.270;2022-10-23T12:44:58;2.80;;;2.20;;
801;SDS011;383;48.766;9.270;2022-10-23T12:47:26;6.13;;;2.70;;
801;SDS011;383;48.766;9.270;2022-10-23T12:49:54;5.60;;;2.30;;
801;SDS011;383;48.766;9.270;2022-10-23T12:52:21;3.60;;;2.40;;
801;SDS011;383;48.766;9.270;2022-10-23T12:54:49;4.17;;;2.50;;
801;SDS011;383;48.766;9.270;2022-10-23T12:57:19;5.57;;;3.23;;
801;SDS011;383;48.766;9.270;2022-10-23T12:59:47;2.53;;;2.20;;
801;SDS011;383;48.766;9.270;2022-10-23T13:02:23;5.50;;;3.03;;
801;SDS011;383;48.766;9.270;2022-10-23T13:04:51;4.90;;;3.60;;
801;SDS011;383;48.766;9.270;2022-10-23T13:07:19;9.77;;;6.70;;
801;SDS011;383;48.766;9.270;2022-10-23T13:09:49;8.80;;;5.17;;
801;SDS011;383;48.766;9.270;2022-10-23T13:12:19;7.17;;;4.60;;
801;SDS011;383;48.766;9.270;2022-10-23T13:14:55;5.27;;;3.50;;
801;SDS011;383;48.766;9.270;2022-10-23T13:17:32;5.43;;;3.03;;
801;SDS011;383;48.766;9.270;2022-10-23T13:20:09;5.03;;;3.27;;
801;SDS011;383;48.766;9.270;2022-10-23T13:22:45;6.13;;;2.03;;
801;SDS011;383;48.766;9.270;2022-10-23T13:25:20;5.97;;;2.60;;
801;SDS011;383;48.766;9.270;2022-10-23T13:27:49;6.40;;;2.83;;
801;SDS011;383;48.766;9.270;2022-10-23T13:30:26;3.03;;;1.70;;
801;SDS011;383;48.766;9.270;2022-10-23T13:32:54;2.53;;;2.00;;
801;SDS011;383;48.766;9.270;2022-10-23T13:35:21;3.07;;;2.00;;
801;SDS011;383;48.766;9.270;2022-10-23T13:37:49;2.40;;;1.60;;
801;SDS011;383;48.766;9.270;2022-10-23T13:40:20;4.80;;;2.37;;
801;SDS011;383;48.766;9.270;2022-10-23T13:42:50;2.20;;;1.97;;
801;SDS011;383;48.766;9.270;2022-10-23T13:45:19;2.07;;;1.70;;
801;SDS011;383;48.766;9.270;2022-10-23T13:47:48;4.40;;;2.27;;
801;SDS011;383;48.766;9.270;2022-10-23T13:50:15;2.27;;;1.90;;
801;SDS011;383;48.766;9.270;2022-10-23T13:52:42;5.47;;;2.20;;
801;SDS011;383;48.766;9.270;2022-10-23T13:55:12;4.60;;;1.90;;
801;SDS011;383;48.766;9.270;2022-10-23T13:57:47;4.27;;;1.80;;
801;SDS011;383;48.766;9.270;2022-10-23T14:00:15;8.97;;;2.00;;
801;SDS011;383;48.766;9.270;2022-10-23T14:02:43;6.00;;;2.63;;
801;SDS011;383;48.766;9.270;2022-10-23T14:05:10;6.17;;;2.30;;
801;SDS011;383;48.766;9.270;2022-10-23T14:07:37;3.43;;;2.17;;
801;SDS011;383;48.766;9.270;2022-10-23T14:10:04;6.63;;;2.70;;
801;SDS011;383;48.766;9.270;2022-10-23T14:12:38;4.10;;;1.80;;
801;SDS011;383;48.766;9.270;2022-10-23T14:15:05;10.77;;;2.33;;
801;SDS011;383;48.766;9.270;2022-10-23T14:17:35;6.70;;;3.07;;
801;SDS011;383;48.766;9.270;2022-10-23T14:20:02;2.73;;;2.10;;
801;SDS011;383;48.766;9.270;2022-10-23T14:22:29;3.77;;;2.33;;
801;SDS011;383;48.766;9.270;2022-10-23T14:24:56;4.43;;;2.53;;
801;SDS011;383;48.766;9.270;2022-10-23T14:27:23;4.90;;;2.57;;
801;SDS011;383;48.766;9.270;2022-10-23T14:29:49;8.30;;;2.63;;
801;SDS011;383;48.766;9.270;2022-10-23T14:32:17;4.30;;;2.63;;
801;SDS011;383;48.766;9.270;2022-10-23T14:34:47;9.30;;;3.83;;
801;SDS011;383;48.766;9.270;2022-10-23T14:37:16;10.93;;;5.17;;
801;SDS011;383;48.766;9.270;2022-10-23T14:39:43;9.90;;;4.50;;
801;SDS011;383;48.766;9.270;2022-10-23T14:42:10;6.30;;;2.90;;
801;SDS011;383;48.766;9.270;2022-10-23T14:44:37;5.53;;;3.30;;
801;SDS011;383;48.766;9.270;2022-10-23T14:47:04;8.33;;;3.37;;
801;SDS011;383;48.766;9.270;2022-10-23T14:49:31;14.17;;;5.00;;
801;SDS011;383;48.766;9.270;2022-10-23T14:52:00;16.67;;;3.40;;
801;SDS011;383;48.766;9.270;2022-10-23T14:54:27;10.23;;;4.13;;
801;SDS011;383;48.766;9.270;2022-10-23T14:56:57;4.43;;;2.70;;
801;SDS011;383;48.766;9.270;2022-10-23T14:59:23;5.70;;;4.30;;
801;SDS011;383;48.766;9.270;2022-10-23T15:01:50;8.07;;;3.83;;
801;SDS011;383;48.766;9.270;2022-10-23T15:04:17;14.17;;;4.30;;
801;SDS011;383;48.766;9.270;2022-10-23T15:06:43;8.43;;;4.00;;
801;SDS011;383;48.766;9.270;2022-10-23T15:09:12;10.07;;;3.83;;
801;SDS011;383;48.766;9.270;2022-10-23T15:11:39;7.23;;;3.93;;
801;SDS011;383;48.766;9.270;2022-10-23T15:14:06;6.30;;;3.67;;
801;SDS011;383;48.766;9.270;2022-10-23T15:16:33;7.20;;;4.10;;
801;SDS011;383;48.766;9.270;2022-10-23T15:19:05;9.90;;;5.00;;
801;SDS011;383;48.766;9.270;2022-10-23T15:21:31;7.87;;;4.67;;
801;SDS011;383;48.766;9.270;2022-10-23T15:23:58;8.20;;;5.03;;
801;SDS011;383;48.766;9.270;2022-10-23T15:26:27;10.37;;;5.03;;
801;SDS011;383;48.766;9.270;2022-10-23T15:28:55;11.40;;;5.17;;
801;SDS011;383;48.766;9.270;2022-10-23T15:34:05;9.93;;;5.47;;
801;SDS011;383;48.766;9.270;2022-10-23T15:36:33;12.27;;;5.80;;
801;SDS011;383;48.766;9.270;2022-10-23T15:39:00;10.43;;;4.20;;
801;SDS011;383;48.766;9.270;2022-10-23T15:41:29;8.10;;;4.33;;
801;SDS011;383;48.766;9.270;2022-10-23T15:43:57;27.07;;;5.87;;
801;SDS011;383;48.766;9.270;2022-10-23T15:46:25;6.80;;;4.07;;
801;SDS011;383;48.766;9.270;2022-10-23T15:48:52;15.27;;;4.97;;
801;SDS011;383;48.766;9.270;2022-10-23T15:51:19;9.50;;;4.90;;
801;SDS011;383;48.766;9.270;2022-10-23T15:53:46;11.23;;;5.30;;
801;SDS011;383;48.766;9.270;2022-10-23T15:56:12;5.67;;;4.30;;
801;SDS011;383;48.766;9.270;2022-10-23T15:58:40;15.17;;;5.53;;
801;SDS011;383;48.766;9.270;2022-10-23T16:01:08;6.50;;;4.23;;
801;SDS011;383;48.766;9.270;2022-10-23T16:03:35;9.47;;;4.50;;